sensor_id;sensor_type;location;lat;lon;timestamp;pressure;altitude;pressure_sealevel;temperature;humidity
77041;BME280;65974;42.664;23.264;2024-03-06T00:00:57;94145.03;;;4.84;93.96
77041;BME280;65974;42.664;23.264;2024-03-06T00:03:23;94151.50;;;4.87;93.27
77041;BME280;65974;42.664;23.264;2024-03-06T00:05:48;94150.72;;;4.86;93.35
77041;BME280;65974;42.664;23.264;2024-03-06T00:08:14;94157.41;;;4.80;93.39
77041;BME280;65974;42.664;23.264;2024-03-06T00:10:41;94154.41;;;4.82;93.52
77041;BME280;65974;42.664;23.264;2024-03-06T00:13:08;94153.09;;;4.91;93.58
77041;BME280;65974;42.664;23.264;2024-03-06T00:15:33;94149.75;;;4.94;92.77
77041;BME280;65974;42.664;23.264;2024-03-06T00:17:59;94151.56;;;4.90;93.33
77041;BME280;65974;42.664;23.264;2024-03-06T00:20:25;94158.22;;;4.84;93.79
77041;BME280;65974;42.664;23.264;2024-03-06T00:22:50;94156.31;;;4.81;94.31
77041;BME280;65974;42.664;23.264;2024-03-06T00:25:16;94154.81;;;4.84;94.25
77041;BME280;65974;42.664;23.264;2024-03-06T00:27:41;94157.75;;;4.79;94.14
77041;BME280;65974;42.664;23.264;2024-03-06T00:30:07;94159.88;;;4.73;93.26
77041;BME280;65974;42.664;23.264;2024-03-06T00:32:33;94158.94;;;4.62;93.55
77041;BME280;65974;42.664;23.264;2024-03-06T00:34:58;94151.53;;;4.52;93.99
77041;BME280;65974;42.664;23.264;2024-03-06T00:37:24;94153.44;;;4.51;93.84
77041;BME280;65974;42.664;23.264;2024-03-06T00:39:49;94147.81;;;4.53;93.46
77041;BME280;65974;42.664;23.264;2024-03-06T00:42:15;94152.94;;;4.46;93.75
77041;BME280;65974;42.664;23.264;2024-03-06T00:44:41;94149.81;;;4.40;94.61
77041;BME280;65974;42.664;23.264;2024-03-06T00:47:07;94148.47;;;4.31;94.51
77041;BME280;65974;42.664;23.264;2024-03-06T00:49:32;94144.94;;;4.23;95.16
77041;BME280;65974;42.664;23.264;2024-03-06T00:51:57;94149.69;;;4.18;95.26
77041;BME280;65974;42.664;23.264;2024-03-06T00:54:23;94148.53;;;4.15;95.95
77041;BME280;65974;42.664;23.264;2024-03-06T00:56:48;94153.03;;;4.15;95.08
77041;BME280;65974;42.664;23.264;2024-03-06T00:59:14;94148.25;;;4.05;95.11
77041;BME280;65974;42.664;23.264;2024-03-06T01:01:39;94150.22;;;3.92;95.20
77041;BME280;65974;42.664;23.264;2024-03-06T01:04:05;94151.34;;;3.91;95.61
77041;BME280;65974;42.664;23.264;2024-03-06T01:06:31;94154.81;;;3.79;95.88
77041;BME280;65974;42.664;23.264;2024-03-06T01:08:57;94155.44;;;3.73;96.14
77041;BME280;65974;42.664;23.264;2024-03-06T01:11:23;94152.66;;;3.66;96.49
77041;BME280;65974;42.664;23.264;2024-03-06T01:13:49;94154.75;;;3.60;96.82
77041;BME280;65974;42.664;23.264;2024-03-06T01:16:14;94159.69;;;3.62;96.71
77041;BME280;65974;42.664;23.264;2024-03-06T01:18:40;94152.53;;;3.62;97.42
77041;BME280;65974;42.664;23.264;2024-03-06T01:21:07;94149.91;;;3.62;97.39
77041;BME280;65974;42.664;23.264;2024-03-06T01:23:32;94151.03;;;3.61;97.66
77041;BME280;65974;42.664;23.264;2024-03-06T01:25:58;94138.63;;;3.62;97.56
77041;BME280;65974;42.664;23.264;2024-03-06T01:28:23;94142.44;;;3.64;97.25
77041;BME280;65974;42.664;23.264;2024-03-06T01:30:49;94140.91;;;3.63;97.51
77041;BME280;65974;42.664;23.264;2024-03-06T01:33:14;94133.88;;;3.67;97.50
77041;BME280;65974;42.664;23.264;2024-03-06T01:35:40;94144.41;;;3.67;97.35
77041;BME280;65974;42.664;23.264;2024-03-06T01:38:05;94136.91;;;3.69;97.37
77041;BME280;65974;42.664;23.264;2024-03-06T01:40:31;94146.50;;;3.77;97.27
77041;BME280;65974;42.664;23.264;2024-03-06T01:42:56;94139.13;;;3.83;96.87
77041;BME280;65974;42.664;23.264;2024-03-06T01:45:22;94139.03;;;3.79;96.37
77041;BME280;65974;42.664;23.264;2024-03-06T01:47:48;94132.50;;;3.73;96.23
77041;BME280;65974;42.664;23.264;2024-03-06T01:50:13;94139.81;;;3.80;96.75
77041;BME280;65974;42.664;23.264;2024-03-06T01:52:39;94138.78;;;3.84;96.34
77041;BME280;65974;42.664;23.264;2024-03-06T01:55:25;94135.47;;;3.87;95.85
77041;BME280;65974;42.664;23.264;2024-03-06T01:57:52;94143.09;;;3.92;95.55
77041;BME280;65974;42.664;23.264;2024-03-06T02:00:18;94141.16;;;3.89;95.76
77041;BME280;65974;42.664;23.264;2024-03-06T02:02:43;94151.41;;;3.94;95.79
77041;BME280;65974;42.664;23.264;2024-03-06T02:05:09;94150.34;;;3.96;95.85
77041;BME280;65974;42.664;23.264;2024-03-06T02:07:36;94151.78;;;3.93;95.43
77041;BME280;65974;42.664;23.264;2024-03-06T02:10:04;94154.75;;;3.91;95.66
77041;BME280;65974;42.664;23.264;2024-03-06T02:12:32;94160.03;;;3.91;94.75
77041;BME280;65974;42.664;23.264;2024-03-06T02:14:58;94146.34;;;3.86;95.62
77041;BME280;65974;42.664;23.264;2024-03-06T02:17:25;94153.22;;;3.90;95.77
77041;BME280;65974;42.664;23.264;2024-03-06T02:19:52;94164.44;;;3.87;95.67
77041;BME280;65974;42.664;23.264;2024-03-06T02:22:17;94163.56;;;3.83;95.30
77041;BME280;65974;42.664;23.264;2024-03-06T02:24:45;94171.06;;;3.81;95.36
77041;BME280;65974;42.664;23.264;2024-03-06T02:27:11;94171.66;;;3.75;96.19
77041;BME280;65974;42.664;23.264;2024-03-06T02:29:36;94177.69;;;3.75;96.33
77041;BME280;65974;42.664;23.264;2024-03-06T02:32:03;94170.22;;;3.77;95.84
77041;BME280;65974;42.664;23.264;2024-03-06T02:34:29;94178.47;;;3.76;96.17
77041;BME280;65974;42.664;23.264;2024-03-06T02:36:57;94174.81;;;3.80;95.54
77041;BME280;65974;42.664;23.264;2024-03-06T02:39:23;94180.75;;;3.77;95.53
77041;BME280;65974;42.664;23.264;2024-03-06T02:41:48;94184.91;;;3.78;95.14
77041;BME280;65974;42.664;23.264;2024-03-06T02:44:15;94182.88;;;3.72;95.77
77041;BME280;65974;42.664;23.264;2024-03-06T02:46:49;94185.44;;;3.68;95.71
77041;BME280;65974;42.664;23.264;2024-03-06T02:49:18;94176.66;;;3.64;96.01
77041;BME280;65974;42.664;23.264;2024-03-06T02:51:44;94176.50;;;3.57;96.07
77041;BME280;65974;42.664;23.264;2024-03-06T02:54:10;94181.25;;;3.52;96.01
77041;BME280;65974;42.664;23.264;2024-03-06T02:56:35;94178.53;;;3.48;96.69
77041;BME280;65974;42.664;23.264;2024-03-06T02:59:01;94174.88;;;3.53;96.04
77041;BME280;65974;42.664;23.264;2024-03-06T03:01:28;94180.41;;;3.48;95.72
77041;BME280;65974;42.664;23.264;2024-03-06T03:03:56;94182.59;;;3.46;95.86
77041;BME280;65974;42.664;23.264;2024-03-06T03:06:22;94182.94;;;3.44;96.05
77041;BME280;65974;42.664;23.264;2024-03-06T03:08:49;94183.59;;;3.41;96.31
77041;BME280;65974;42.664;23.264;2024-03-06T03:11:15;94183.69;;;3.29;96.93
77041;BME280;65974;42.664;23.264;2024-03-06T03:13:41;94192.50;;;3.21;97.41
77041;BME280;65974;42.664;23.264;2024-03-06T03:16:15;94187.47;;;3.16;97.63
77041;BME280;65974;42.664;23.264;2024-03-06T03:18:40;94196.38;;;3.11;97.45
77041;BME280;65974;42.664;23.264;2024-03-06T03:21:08;94188.06;;;3.09;97.20
77041;BME280;65974;42.664;23.264;2024-03-06T03:23:35;94189.25;;;3.12;97.87
77041;BME280;65974;42.664;23.264;2024-03-06T03:26:01;94196.47;;;3.15;97.39
77041;BME280;65974;42.664;23.264;2024-03-06T03:28:29;94186.13;;;3.22;97.57
77041;BME280;65974;42.664;23.264;2024-03-06T03:30:54;94196.66;;;3.22;98.10
77041;BME280;65974;42.664;23.264;2024-03-06T03:33:22;94191.38;;;3.22;97.90
77041;BME280;65974;42.664;23.264;2024-03-06T03:35:48;94186.97;;;3.26;97.64
77041;BME280;65974;42.664;23.264;2024-03-06T03:38:14;94186.56;;;3.24;97.55
77041;BME280;65974;42.664;23.264;2024-03-06T03:40:40;94190.97;;;3.20;97.39
77041;BME280;65974;42.664;23.264;2024-03-06T03:43:06;94197.34;;;3.19;97.16
77041;BME280;65974;42.664;23.264;2024-03-06T03:45:35;94186.56;;;3.24;96.75
77041;BME280;65974;42.664;23.264;2024-03-06T03:48:05;94188.53;;;3.27;96.89
77041;BME280;65974;42.664;23.264;2024-03-06T03:50:31;94194.03;;;3.22;97.24
77041;BME280;65974;42.664;23.264;2024-03-06T03:52:57;94196.34;;;3.24;97.37
77041;BME280;65974;42.664;23.264;2024-03-06T03:55:27;94191.38;;;3.22;97.82
77041;BME280;65974;42.664;23.264;2024-03-06T03:57:53;94194.44;;;3.24;97.62
77041;BME280;65974;42.664;23.264;2024-03-06T04:00:19;94195.72;;;3.30;97.90
77041;BME280;65974;42.664;23.264;2024-03-06T04:02:44;94192.66;;;3.28;97.02
77041;BME280;65974;42.664;23.264;2024-03-06T04:05:10;94200.31;;;3.33;97.37
77041;BME280;65974;42.664;23.264;2024-03-06T04:07:37;94207.56;;;3.36;97.24
77041;BME280;65974;42.664;23.264;2024-03-06T04:10:04;94208.66;;;3.35;96.87
77041;BME280;65974;42.664;23.264;2024-03-06T04:12:29;94205.16;;;3.31;96.74
77041;BME280;65974;42.664;23.264;2024-03-06T04:14:56;94218.66;;;3.30;96.62
77041;BME280;65974;42.664;23.264;2024-03-06T04:17:21;94220.94;;;3.31;97.91
77041;BME280;65974;42.664;23.264;2024-03-06T04:19:47;94221.47;;;3.37;97.67
77041;BME280;65974;42.664;23.264;2024-03-06T04:22:14;94218.94;;;3.40;98.27
77041;BME280;65974;42.664;23.264;2024-03-06T04:24:43;94232.34;;;3.35;97.90
77041;BME280;65974;42.664;23.264;2024-03-06T04:27:09;94225.97;;;3.36;97.86
77041;BME280;65974;42.664;23.264;2024-03-06T04:29:34;94232.09;;;3.40;98.03
77041;BME280;65974;42.664;23.264;2024-03-06T04:32:00;94230.06;;;3.34;97.71
77041;BME280;65974;42.664;23.264;2024-03-06T04:34:26;94232.81;;;3.25;97.34
77041;BME280;65974;42.664;23.264;2024-03-06T04:36:52;94234.50;;;3.17;97.29
77041;BME280;65974;42.664;23.264;2024-03-06T04:39:17;94234.06;;;3.15;97.83
77041;BME280;65974;42.664;23.264;2024-03-06T04:41:43;94233.75;;;3.17;97.65
77041;BME280;65974;42.664;23.264;2024-03-06T04:44:08;94235.69;;;3.20;97.69
77041;BME280;65974;42.664;23.264;2024-03-06T04:46:34;94243.00;;;3.27;98.06
77041;BME280;65974;42.664;23.264;2024-03-06T04:48:59;94239.28;;;3.28;97.10
77041;BME280;65974;42.664;23.264;2024-03-06T04:51:25;94242.00;;;3.31;97.11
77041;BME280;65974;42.664;23.264;2024-03-06T04:53:50;94246.28;;;3.36;96.72
77041;BME280;65974;42.664;23.264;2024-03-06T04:56:17;94256.88;;;3.39;96.06
77041;BME280;65974;42.664;23.264;2024-03-06T04:58:46;94253.59;;;3.42;95.71
77041;BME280;65974;42.664;23.264;2024-03-06T05:03:47;94253.09;;;3.52;94.60
77041;BME280;65974;42.664;23.264;2024-03-06T05:06:12;94254.22;;;3.51;94.99
77041;BME280;65974;42.664;23.264;2024-03-06T05:08:38;94249.84;;;3.43;95.51
77041;BME280;65974;42.664;23.264;2024-03-06T05:11:03;94246.69;;;3.38;95.99
77041;BME280;65974;42.664;23.264;2024-03-06T05:13:30;94254.59;;;3.38;95.94
77041;BME280;65974;42.664;23.264;2024-03-06T05:15:56;94252.63;;;3.35;95.59
77041;BME280;65974;42.664;23.264;2024-03-06T05:18:21;94257.56;;;3.36;96.13
77041;BME280;65974;42.664;23.264;2024-03-06T05:20:47;94259.09;;;3.37;95.83
77041;BME280;65974;42.664;23.264;2024-03-06T05:23:12;94260.72;;;3.42;95.93
77041;BME280;65974;42.664;23.264;2024-03-06T05:25:39;94264.28;;;3.49;95.50
77041;BME280;65974;42.664;23.264;2024-03-06T05:28:05;94264.81;;;3.55;95.67
77041;BME280;65974;42.664;23.264;2024-03-06T05:30:31;94264.50;;;3.72;95.52
77041;BME280;65974;42.664;23.264;2024-03-06T05:32:56;94263.94;;;3.78;95.22
77041;BME280;65974;42.664;23.264;2024-03-06T05:35:22;94265.38;;;3.76;95.90
77041;BME280;65974;42.664;23.264;2024-03-06T05:37:47;94276.50;;;3.85;95.76
77041;BME280;65974;42.664;23.264;2024-03-06T05:40:13;94263.84;;;3.90;95.59
77041;BME280;65974;42.664;23.264;2024-03-06T05:42:39;94270.56;;;4.04;95.88
77041;BME280;65974;42.664;23.264;2024-03-06T05:45:04;94265.22;;;4.16;95.32
77041;BME280;65974;42.664;23.264;2024-03-06T05:47:37;94269.88;;;4.22;94.86
77041;BME280;65974;42.664;23.264;2024-03-06T05:50:05;94275.00;;;4.31;94.94
77041;BME280;65974;42.664;23.264;2024-03-06T05:52:31;94273.66;;;4.21;95.01
77041;BME280;65974;42.664;23.264;2024-03-06T05:54:57;94274.81;;;3.49;93.47
77041;BME280;65974;42.664;23.264;2024-03-06T05:57:22;94280.84;;;3.22;96.98
77041;BME280;65974;42.664;23.264;2024-03-06T05:59:48;94286.03;;;3.19;98.45
77041;BME280;65974;42.664;23.264;2024-03-06T06:02:13;94294.91;;;3.14;98.24
77041;BME280;65974;42.664;23.264;2024-03-06T06:04:42;94292.38;;;3.17;98.78
77041;BME280;65974;42.664;23.264;2024-03-06T06:07:07;94298.63;;;3.25;98.75
77041;BME280;65974;42.664;23.264;2024-03-06T06:09:33;94290.44;;;3.42;99.93
77041;BME280;65974;42.664;23.264;2024-03-06T06:11:58;94298.06;;;3.47;99.90
77041;BME280;65974;42.664;23.264;2024-03-06T06:14:24;94296.06;;;3.56;100.00
77041;BME280;65974;42.664;23.264;2024-03-06T06:16:52;94295.34;;;3.71;100.00
77041;BME280;65974;42.664;23.264;2024-03-06T06:19:18;94298.44;;;3.89;100.00
77041;BME280;65974;42.664;23.264;2024-03-06T06:21:43;94289.09;;;3.91;100.00
77041;BME280;65974;42.664;23.264;2024-03-06T06:24:09;94294.88;;;3.97;100.00
77041;BME280;65974;42.664;23.264;2024-03-06T06:26:36;94287.81;;;4.01;100.00
77041;BME280;65974;42.664;23.264;2024-03-06T06:29:01;94283.81;;;4.07;100.00
77041;BME280;65974;42.664;23.264;2024-03-06T06:31:26;94285.03;;;4.25;100.00
77041;BME280;65974;42.664;23.264;2024-03-06T06:33:53;94285.81;;;4.26;99.57
77041;BME280;65974;42.664;23.264;2024-03-06T06:36:19;94288.03;;;4.24;99.63
77041;BME280;65974;42.664;23.264;2024-03-06T06:38:46;94279.59;;;4.34;99.55
77041;BME280;65974;42.664;23.264;2024-03-06T06:41:11;94282.28;;;4.37;98.81
77041;BME280;65974;42.664;23.264;2024-03-06T06:43:37;94271.75;;;4.37;98.73
77041;BME280;65974;42.664;23.264;2024-03-06T06:46:03;94282.38;;;4.41;98.56
77041;BME280;65974;42.664;23.264;2024-03-06T06:48:31;94283.91;;;4.42;98.74
77041;BME280;65974;42.664;23.264;2024-03-06T06:50:56;94284.09;;;4.49;97.80
77041;BME280;65974;42.664;23.264;2024-03-06T06:53:22;94279.28;;;4.70;97.22
77041;BME280;65974;42.664;23.264;2024-03-06T06:55:47;94287.84;;;4.83;96.02
77041;BME280;65974;42.664;23.264;2024-03-06T06:58:13;94288.16;;;4.97;95.48
77041;BME280;65974;42.664;23.264;2024-03-06T07:00:39;94296.56;;;5.02;94.85
77041;BME280;65974;42.664;23.264;2024-03-06T07:03:04;94294.16;;;5.13;93.94
77041;BME280;65974;42.664;23.264;2024-03-06T07:05:32;94294.69;;;5.22;93.71
77041;BME280;65974;42.664;23.264;2024-03-06T07:07:58;94287.56;;;5.22;93.25
77041;BME280;65974;42.664;23.264;2024-03-06T07:10:24;94296.59;;;5.21;93.27
77041;BME280;65974;42.664;23.264;2024-03-06T07:12:52;94297.84;;;5.27;93.32
77041;BME280;65974;42.664;23.264;2024-03-06T07:15:18;94294.03;;;5.25;93.42
77041;BME280;65974;42.664;23.264;2024-03-06T07:17:43;94292.97;;;5.29;93.63
77041;BME280;65974;42.664;23.264;2024-03-06T07:20:09;94300.00;;;5.41;92.62
77041;BME280;65974;42.664;23.264;2024-03-06T07:22:37;94296.19;;;5.38;92.20
77041;BME280;65974;42.664;23.264;2024-03-06T07:25:03;94302.78;;;5.48;92.87
77041;BME280;65974;42.664;23.264;2024-03-06T07:27:30;94302.16;;;5.55;91.76
77041;BME280;65974;42.664;23.264;2024-03-06T07:29:56;94300.75;;;5.61;91.40
77041;BME280;65974;42.664;23.264;2024-03-06T07:32:22;94296.31;;;5.65;90.61
77041;BME280;65974;42.664;23.264;2024-03-06T07:34:47;94298.19;;;5.64;91.09
77041;BME280;65974;42.664;23.264;2024-03-06T07:37:13;94301.94;;;5.63;91.35
77041;BME280;65974;42.664;23.264;2024-03-06T07:39:40;94295.75;;;5.75;90.53
77041;BME280;65974;42.664;23.264;2024-03-06T07:42:07;94293.53;;;5.77;90.03
77041;BME280;65974;42.664;23.264;2024-03-06T07:44:33;94291.44;;;5.86;89.45
77041;BME280;65974;42.664;23.264;2024-03-06T07:47:00;94296.84;;;5.93;90.26
77041;BME280;65974;42.664;23.264;2024-03-06T07:49:26;94289.28;;;5.91;89.55
77041;BME280;65974;42.664;23.264;2024-03-06T07:51:51;94293.22;;;6.01;89.56
77041;BME280;65974;42.664;23.264;2024-03-06T07:54:17;94287.69;;;6.09;88.80
77041;BME280;65974;42.664;23.264;2024-03-06T07:56:43;94297.88;;;6.30;89.16
77041;BME280;65974;42.664;23.264;2024-03-06T07:59:08;94288.97;;;6.64;87.59
77041;BME280;65974;42.664;23.264;2024-03-06T08:01:34;94299.03;;;6.55;87.39
77041;BME280;65974;42.664;23.264;2024-03-06T08:04:00;94291.75;;;6.49;87.04
77041;BME280;65974;42.664;23.264;2024-03-06T08:06:25;94301.78;;;6.62;87.12
77041;BME280;65974;42.664;23.264;2024-03-06T08:08:52;94298.81;;;6.64;86.76
77041;BME280;65974;42.664;23.264;2024-03-06T08:11:17;94303.28;;;6.60;87.50
77041;BME280;65974;42.664;23.264;2024-03-06T08:13:43;94306.25;;;6.58;87.53
77041;BME280;65974;42.664;23.264;2024-03-06T08:16:12;94301.31;;;6.57;87.56
77041;BME280;65974;42.664;23.264;2024-03-06T08:18:37;94307.16;;;6.66;86.99
77041;BME280;65974;42.664;23.264;2024-03-06T08:21:03;94309.91;;;6.73;87.04
77041;BME280;65974;42.664;23.264;2024-03-06T08:23:30;94304.44;;;6.62;87.11
77041;BME280;65974;42.664;23.264;2024-03-06T08:25:56;94315.25;;;6.76;86.92
77041;BME280;65974;42.664;23.264;2024-03-06T08:28:22;94307.34;;;6.80;86.62
77041;BME280;65974;42.664;23.264;2024-03-06T08:30:47;94303.78;;;6.95;86.14
77041;BME280;65974;42.664;23.264;2024-03-06T08:33:13;94309.81;;;6.92;86.35
77041;BME280;65974;42.664;23.264;2024-03-06T08:35:39;94301.28;;;7.05;85.99
77041;BME280;65974;42.664;23.264;2024-03-06T08:38:04;94305.97;;;7.16;85.25
77041;BME280;65974;42.664;23.264;2024-03-06T08:40:31;94305.88;;;7.09;84.26
77041;BME280;65974;42.664;23.264;2024-03-06T08:42:57;94301.38;;;7.13;85.43
77041;BME280;65974;42.664;23.264;2024-03-06T08:45:22;94301.69;;;7.37;83.84
77041;BME280;65974;42.664;23.264;2024-03-06T08:47:51;94300.63;;;7.42;83.90
77041;BME280;65974;42.664;23.264;2024-03-06T08:50:19;94308.94;;;7.40;82.99
77041;BME280;65974;42.664;23.264;2024-03-06T08:52:45;94302.09;;;7.39;82.94
77041;BME280;65974;42.664;23.264;2024-03-06T08:55:11;94306.66;;;7.39;82.95
77041;BME280;65974;42.664;23.264;2024-03-06T08:57:37;94304.69;;;7.65;82.46
77041;BME280;65974;42.664;23.264;2024-03-06T09:00:07;94303.59;;;7.66;82.30
77041;BME280;65974;42.664;23.264;2024-03-06T09:02:37;94299.91;;;7.78;81.60
77041;BME280;65974;42.664;23.264;2024-03-06T09:05:07;94307.38;;;8.02;80.39
77041;BME280;65974;42.664;23.264;2024-03-06T09:07:38;94310.41;;;8.01;80.33
77041;BME280;65974;42.664;23.264;2024-03-06T09:10:07;94306.69;;;8.09;79.93
77041;BME280;65974;42.664;23.264;2024-03-06T09:12:33;94306.41;;;8.17;79.47
77041;BME280;65974;42.664;23.264;2024-03-06T09:14:59;94301.13;;;8.24;79.68
77041;BME280;65974;42.664;23.264;2024-03-06T09:17:27;94300.22;;;8.46;79.44
77041;BME280;65974;42.664;23.264;2024-03-06T09:19:53;94300.50;;;8.82;77.07
77041;BME280;65974;42.664;23.264;2024-03-06T09:22:19;94295.09;;;8.71;76.85
77041;BME280;65974;42.664;23.264;2024-03-06T09:24:45;94290.63;;;8.75;76.78
77041;BME280;65974;42.664;23.264;2024-03-06T09:27:10;94298.59;;;8.82;76.72
77041;BME280;65974;42.664;23.264;2024-03-06T09:29:36;94297.56;;;8.94;76.28
77041;BME280;65974;42.664;23.264;2024-03-06T09:32:01;94298.03;;;9.10;75.81
77041;BME280;65974;42.664;23.264;2024-03-06T09:34:27;94294.28;;;9.18;75.32
77041;BME280;65974;42.664;23.264;2024-03-06T09:36:52;94288.19;;;9.14;74.70
77041;BME280;65974;42.664;23.264;2024-03-06T09:39:20;94297.63;;;9.08;74.67
77041;BME280;65974;42.664;23.264;2024-03-06T09:41:46;94300.28;;;9.04;73.93
77041;BME280;65974;42.664;23.264;2024-03-06T09:44:13;94294.53;;;8.99;74.20
77041;BME280;65974;42.664;23.264;2024-03-06T09:46:45;94289.56;;;8.90;74.90
77041;BME280;65974;42.664;23.264;2024-03-06T09:49:14;94300.59;;;8.96;74.33
77041;BME280;65974;42.664;23.264;2024-03-06T09:51:42;94299.06;;;8.95;74.13
77041;BME280;65974;42.664;23.264;2024-03-06T09:54:11;94289.72;;;9.11;73.96
77041;BME280;65974;42.664;23.264;2024-03-06T09:56:37;94289.34;;;9.20;74.38
77041;BME280;65974;42.664;23.264;2024-03-06T09:59:02;94288.28;;;9.28;72.96
77041;BME280;65974;42.664;23.264;2024-03-06T10:01:29;94277.25;;;9.26;72.75
77041;BME280;65974;42.664;23.264;2024-03-06T10:03:56;94280.47;;;9.70;71.36
77041;BME280;65974;42.664;23.264;2024-03-06T10:06:22;94274.44;;;9.80;70.68
77041;BME280;65974;42.664;23.264;2024-03-06T10:08:47;94276.03;;;10.02;69.76
77041;BME280;65974;42.664;23.264;2024-03-06T10:11:15;94271.53;;;10.24;68.56
77041;BME280;65974;42.664;23.264;2024-03-06T10:13:42;94272.66;;;10.27;68.27
77041;BME280;65974;42.664;23.264;2024-03-06T10:16:09;94265.09;;;10.60;67.07
77041;BME280;65974;42.664;23.264;2024-03-06T10:18:36;94264.31;;;10.77;65.90
77041;BME280;65974;42.664;23.264;2024-03-06T10:21:04;94259.72;;;10.92;65.26
77041;BME280;65974;42.664;23.264;2024-03-06T10:23:31;94260.78;;;11.26;64.47
77041;BME280;65974;42.664;23.264;2024-03-06T10:25:57;94256.16;;;11.37;64.22
77041;BME280;65974;42.664;23.264;2024-03-06T10:28:23;94250.50;;;11.32;63.40
77041;BME280;65974;42.664;23.264;2024-03-06T10:30:50;94261.44;;;11.58;62.65
77041;BME280;65974;42.664;23.264;2024-03-06T10:33:18;94257.16;;;11.82;62.15
77041;BME280;65974;42.664;23.264;2024-03-06T10:35:46;94240.06;;;11.65;61.43
77041;BME280;65974;42.664;23.264;2024-03-06T10:38:14;94248.03;;;11.76;60.93
77041;BME280;65974;42.664;23.264;2024-03-06T10:40:41;94241.53;;;11.81;61.14
77041;BME280;65974;42.664;23.264;2024-03-06T10:43:07;94243.81;;;11.86;60.44
77041;BME280;65974;42.664;23.264;2024-03-06T10:46:00;94237.69;;;11.92;60.40
77041;BME280;65974;42.664;23.264;2024-03-06T10:48:28;94229.59;;;12.06;60.17
77041;BME280;65974;42.664;23.264;2024-03-06T10:50:55;94227.53;;;12.28;58.87
77041;BME280;65974;42.664;23.264;2024-03-06T10:53:22;94231.44;;;12.13;58.36
77041;BME280;65974;42.664;23.264;2024-03-06T10:55:50;94224.94;;;12.17;58.59
77041;BME280;65974;42.664;23.264;2024-03-06T10:58:16;94209.31;;;12.64;57.71
77041;BME280;65974;42.664;23.264;2024-03-06T11:00:48;94215.69;;;12.77;56.66
77041;BME280;65974;42.664;23.264;2024-03-06T11:03:15;94202.53;;;12.93;56.14
77041;BME280;65974;42.664;23.264;2024-03-06T11:05:42;94201.31;;;13.04;55.00
77041;BME280;65974;42.664;23.264;2024-03-06T11:08:09;94207.09;;;12.96;55.25
77041;BME280;65974;42.664;23.264;2024-03-06T11:10:38;94195.50;;;13.13;54.99
77041;BME280;65974;42.664;23.264;2024-03-06T11:13:04;94185.47;;;13.20;54.56
77041;BME280;65974;42.664;23.264;2024-03-06T11:15:30;94180.69;;;13.39;54.23
77041;BME280;65974;42.664;23.264;2024-03-06T11:17:56;94185.63;;;13.70;52.81
77041;BME280;65974;42.664;23.264;2024-03-06T11:20:23;94182.03;;;13.50;51.39
77041;BME280;65974;42.664;23.264;2024-03-06T11:28:16;94165.63;;;13.48;50.24
77041;BME280;65974;42.664;23.264;2024-03-06T11:31:04;94166.88;;;13.70;48.11
77041;BME280;65974;42.664;23.264;2024-03-06T11:38:38;94154.75;;;13.89;48.87
77041;BME280;65974;42.664;23.264;2024-03-06T11:41:04;94153.56;;;13.93;48.80
77041;BME280;65974;42.664;23.264;2024-03-06T11:43:32;94155.47;;;13.93;49.11
77041;BME280;65974;42.664;23.264;2024-03-06T11:46:10;94156.94;;;14.24;48.89
77041;BME280;65974;42.664;23.264;2024-03-06T11:48:37;94157.44;;;14.16;48.62
77041;BME280;65974;42.664;23.264;2024-03-06T11:51:03;94156.31;;;14.13;49.02
77041;BME280;65974;42.664;23.264;2024-03-06T11:53:30;94147.00;;;13.98;49.33
77041;BME280;65974;42.664;23.264;2024-03-06T11:55:56;94142.09;;;13.93;50.31
77041;BME280;65974;42.664;23.264;2024-03-06T11:58:25;94141.97;;;14.27;49.95
77041;BME280;65974;42.664;23.264;2024-03-06T12:00:53;94143.78;;;14.33;48.00
77041;BME280;65974;42.664;23.264;2024-03-06T12:03:20;94139.59;;;14.32;48.09
77041;BME280;65974;42.664;23.264;2024-03-06T12:05:50;94136.13;;;14.09;47.62
77041;BME280;65974;42.664;23.264;2024-03-06T12:08:15;94129.72;;;14.02;46.49
77041;BME280;65974;42.664;23.264;2024-03-06T12:10:41;94138.72;;;14.39;46.40
77041;BME280;65974;42.664;23.264;2024-03-06T12:13:07;94125.38;;;14.35;45.49
77041;BME280;65974;42.664;23.264;2024-03-06T12:15:33;94128.53;;;14.53;45.44
77041;BME280;65974;42.664;23.264;2024-03-06T12:18:01;94120.13;;;14.28;44.64
77041;BME280;65974;42.664;23.264;2024-03-06T12:20:26;94126.19;;;14.06;44.06
77041;BME280;65974;42.664;23.264;2024-03-06T12:22:52;94123.50;;;13.82;45.40
77041;BME280;65974;42.664;23.264;2024-03-06T12:25:32;94133.31;;;13.66;45.24
77041;BME280;65974;42.664;23.264;2024-03-06T12:28:06;94124.63;;;13.58;44.18
77041;BME280;65974;42.664;23.264;2024-03-06T12:30:41;94118.56;;;13.54;45.11
77041;BME280;65974;42.664;23.264;2024-03-06T12:33:08;94113.38;;;13.44;44.98
77041;BME280;65974;42.664;23.264;2024-03-06T12:35:37;94110.06;;;13.33;45.53
77041;BME280;65974;42.664;23.264;2024-03-06T12:38:14;94119.09;;;13.42;45.11
77041;BME280;65974;42.664;23.264;2024-03-06T12:40:41;94114.56;;;13.39;45.02
77041;BME280;65974;42.664;23.264;2024-03-06T12:43:06;94108.09;;;13.37;45.08
77041;BME280;65974;42.664;23.264;2024-03-06T12:45:33;94109.97;;;13.40;45.21
77041;BME280;65974;42.664;23.264;2024-03-06T12:47:59;94108.09;;;13.37;46.04
77041;BME280;65974;42.664;23.264;2024-03-06T12:50:24;94106.75;;;13.52;45.37
77041;BME280;65974;42.664;23.264;2024-03-06T12:52:50;94115.63;;;13.45;44.71
77041;BME280;65974;42.664;23.264;2024-03-06T12:55:17;94106.19;;;13.37;50.83
77041;BME280;65974;42.664;23.264;2024-03-06T12:57:45;94116.75;;;13.48;52.72
77041;BME280;65974;42.664;23.264;2024-03-06T13:00:11;94111.75;;;13.50;53.63
77041;BME280;65974;42.664;23.264;2024-03-06T13:02:44;94113.09;;;13.35;53.87
77041;BME280;65974;42.664;23.264;2024-03-06T13:05:10;94117.31;;;13.32;54.68
77041;BME280;65974;42.664;23.264;2024-03-06T13:07:36;94125.22;;;13.12;55.89